Time;durP1;ratioP1;P1;durP2;ratioP2;P2;SDS_P1;SDS_P2;PMS_P1;PMS_P2;Temp;Humidity;BMP_temperature;BMP_pressure;BME280_temperature;BME280_humidity;BME280_pressure;Samples;Min_cycle;Max_cycle;Signal;HPM_P1;HPM_P2
2022/04/09 00:00:54;;;;;;;;;;;;;;;17.61;54.47;97876.06;4493689;31;34189;-66
2022/04/09 00:03:22;;;;;;;;;;;;;;;17.69;54.37;97882.13;4481560;32;33926;-68
2022/04/09 00:05:50;;;;;;;;;;;;;;;17.71;54.39;97865.66;4471290;31;31730;-70
2022/04/09 00:08:19;;;;;;;;;;;;;;;17.58;54.89;97857.53;4485745;31;35198;-68
2022/04/09 00:10:47;;;;;;;;;;;;;;;17.73;54.59;97854.66;4467271;31;34357;-69
2022/04/09 00:13:15;;;;;;;;;;;;;;;17.60;54.94;97848.19;4488280;31;34078;-65
2022/04/09 00:15:43;;;;;;;;;;;;;;;17.41;55.31;97841.69;4497051;31;33493;-66
2022/04/09 00:18:13;;;;;;;;;;;;;;;17.60;54.60;97841.94;4494655;31;34525;-66
2022/04/09 00:20:41;;;;;;;;;;;;;;;17.60;54.77;97839.25;4488724;31;33487;-64
2022/04/09 00:23:13;;;;;;;;;;;;;;;17.69;54.50;97827.19;4474040;31;33739;-65
2022/04/09 00:25:41;;;;;;;;;;;;;;;17.61;54.71;97820.09;4483464;31;33568;-66
2022/04/09 00:28:09;;;;;;;;;;;;;;;17.43;55.29;97826.09;4482686;32;34340;-66
2022/04/09 00:30:38;;;;;;;;;;;;;;;17.51;55.23;97826.94;4485326;31;33237;-65
2022/04/09 00:33:05;;;;;;;;;;;;;;;16.85;57.55;97820.28;4481889;32;33164;-66
2022/04/09 00:35:33;;;;;;;;;;;;;;;16.73;57.88;97816.50;4490773;31;32109;-68
2022/04/09 00:38:01;;;;;;;;;;;;;;;17.39;55.46;97807.78;4487049;31;34106;-68
2022/04/09 00:40:29;;;;;;;;;;;;;;;17.33;55.91;97805.87;4488973;31;35888;-68
2022/04/09 00:42:57;;;;;;;;;;;;;;;17.38;55.51;97800.72;4483665;31;33061;-68
2022/04/09 00:45:25;;;;;;;;;;;;;;;17.35;55.63;97809.22;4490654;31;32262;-67
2022/04/09 00:47:53;;;;;;;;;;;;;;;17.33;55.80;97812.13;4484512;31;33068;-68
2022/04/09 00:50:21;;;;;;;;;;;;;;;17.37;55.62;97813.41;4472428;31;33928;-67
2022/04/09 00:52:50;;;;;;;;;;;;;;;17.42;55.34;97816.31;4492981;31;34040;-71
2022/04/09 00:55:19;;;;;;;;;;;;;;;17.44;55.51;97830.47;4487742;31;34105;-67
2022/04/09 00:57:46;;;;;;;;;;;;;;;17.66;54.67;97852.78;4475154;31;33859;-68
2022/04/09 01:00:15;;;;;;;;;;;;;;;17.43;55.31;97850.44;4498372;31;34155;-67
2022/04/09 01:02:43;;;;;;;;;;;;;;;17.31;55.90;97849.38;4474148;31;33804;-67
2022/04/09 01:05:14;;;;;;;;;;;;;;;17.47;55.17;97858.97;4469005;31;33350;-68
2022/04/09 01:07:43;;;;;;;;;;;;;;;17.36;55.60;97875.78;4492770;31;35211;-67
2022/04/09 01:10:10;;;;;;;;;;;;;;;17.24;56.04;97870.16;4476226;31;33907;-66
2022/04/09 01:12:38;;;;;;;;;;;;;;;16.96;56.34;97833.25;4487515;31;34547;-66
2022/04/09 01:15:08;;;;;;;;;;;;;;;16.01;59.82;97810.44;4485445;31;33604;-66
2022/04/09 01:17:36;;;;;;;;;;;;;;;16.16;59.18;97806.81;4490846;31;34754;-66
2022/04/09 01:20:19;;;;;;;;;;;;;;;16.55;58.38;97814.31;4493108;31;35091;-66
2022/04/09 01:22:48;;;;;;;;;;;;;;;16.60;57.65;97808.34;4484467;31;33145;-66
2022/04/09 01:25:16;;;;;;;;;;;;;;;16.54;57.01;97791.88;4487471;31;33533;-66
2022/04/09 01:27:48;;;;;;;;;;;;;;;14.43;63.28;97813.06;4488589;31;35363;-66
2022/04/09 01:30:16;;;;;;;;;;;;;;;14.03;65.46;97827.78;4485570;31;35548;-69
2022/04/09 01:32:45;;;;;;;;;;;;;;;14.11;65.57;97844.69;4490215;31;34229;-65
2022/04/09 01:35:13;;;;;;;;;;;;;;;14.63;63.92;97845.66;4496627;31;32155;-67
2022/04/09 01:37:41;;;;;;;;;;;;;;;14.93;62.82;97857.25;4489624;31;33140;-69
2022/04/09 01:40:12;;;;;;;;;;;;;;;14.95;62.82;97857.88;4483805;31;33298;-67
2022/04/09 01:42:43;;;;;;;;;;;;;;;14.15;65.42;97854.06;4487411;31;34090;-72
2022/04/09 01:45:17;;;;;;;;;;;;;;;14.16;65.86;97853.06;4490319;31;34105;-67
2022/04/09 01:47:51;;;;;;;;;;;;;;;13.47;68.70;97858.50;4479889;31;32901;-66
2022/04/09 01:50:22;;;;;;;;;;;;;;;13.55;68.46;97865.69;4492796;31;34399;-67
2022/04/09 01:52:51;;;;;;;;;;;;;;;13.88;67.19;97868.13;4491081;31;34664;-67
2022/04/09 01:55:19;;;;;;;;;;;;;;;13.77;67.31;97857.78;4488288;31;33501;-65
2022/04/09 01:57:50;;;;;;;;;;;;;;;14.33;65.80;97839.44;4479516;31;35112;-66
2022/04/09 02:00:22;;;;;;;;;;;;;;;14.08;66.45;97849.59;4499571;31;34397;-67
2022/04/09 02:02:51;;;;;;;;;;;;;;;13.02;71.46;97838.63;4492538;31;33050;-66
2022/04/09 02:05:25;;;;;;;;;;;;;;;13.03;72.01;97840.31;4491129;31;32240;-66
2022/04/09 02:07:57;;;;;;;;;;;;;;;12.28;74.96;97842.63;4486897;31;33115;-67
2022/04/09 02:10:34;;;;;;;;;;;;;;;12.14;75.95;97829.94;4489780;31;35046;-66
2022/04/09 02:13:10;;;;;;;;;;;;;;;12.48;74.58;97829.66;4488629;31;33351;-66
2022/04/09 02:15:41;;;;;;;;;;;;;;;11.88;76.98;97841.72;4488512;31;32128;-65
2022/04/09 02:18:11;;;;;;;;;;;;;;;12.06;77.53;97836.97;4482941;32;35713;-66
2022/04/09 02:20:41;;;;;;;;;;;;;;;12.24;76.55;97836.78;4488486;31;33428;-69
2022/04/09 02:23:12;;;;;;;;;;;;;;;11.60;80.33;97830.47;4485856;31;34170;-68
2022/04/09 02:25:41;;;;;;;;;;;;;;;11.79;80.00;97816.72;4479780;32;33262;-67
2022/04/09 02:28:11;;;;;;;;;;;;;;;11.54;81.61;97823.94;4484270;31;33237;-68
2022/04/09 02:30:42;;;;;;;;;;;;;;;11.70;81.58;97822.25;4494492;31;34190;-68
2022/04/09 02:33:13;;;;;;;;;;;;;;;11.52;83.72;97833.97;4491699;31;33068;-68
2022/04/09 02:35:46;;;;;;;;;;;;;;;11.39;84.31;97839.81;4485433;31;32066;-68
2022/04/09 02:38:17;;;;;;;;;;;;;;;11.30;85.36;97845.31;4485943;31;34290;-68
2022/04/09 02:40:46;;;;;;;;;;;;;;;11.54;84.94;97840.00;4490429;31;34525;-67
2022/04/09 02:43:15;;;;;;;;;;;;;;;11.47;85.74;97848.88;4490754;31;35209;-67
2022/04/09 02:45:47;;;;;;;;;;;;;;;11.75;84.31;97854.72;4478808;31;34174;-64
2022/04/09 02:48:15;;;;;;;;;;;;;;;11.48;85.75;97862.09;4486342;31;34160;-64
2022/04/09 02:50:45;;;;;;;;;;;;;;;11.43;86.78;97867.13;4485493;31;33141;-63
2022/04/09 02:53:15;;;;;;;;;;;;;;;11.30;87.47;97872.97;4480242;32;34489;-64
2022/04/09 02:55:44;;;;;;;;;;;;;;;11.64;86.25;97869.31;4479397;31;32371;-64
2022/04/09 02:58:16;;;;;;;;;;;;;;;11.60;86.15;97868.81;4481340;31;32707;-63
2022/04/09 03:00:47;;;;;;;;;;;;;;;11.80;83.98;97855.06;4492014;31;34289;-63
2022/04/09 03:03:16;;;;;;;;;;;;;;;12.02;82.54;97859.78;4484388;31;33922;-64
2022/04/09 03:05:47;;;;;;;;;;;;;;;12.20;81.84;97873.00;4487431;31;34189;-63
2022/04/09 03:08:16;;;;;;;;;;;;;;;12.44;80.77;97879.31;4480408;31;33116;-63
2022/04/09 03:10:47;;;;;;;;;;;;;;;12.31;80.38;97866.44;4494110;31;33259;-63
2022/04/09 03:13:15;;;;;;;;;;;;;;;12.37;79.55;97868.44;4492943;31;33053;-63
2022/04/09 03:15:44;;;;;;;;;;;;;;;12.54;78.81;97859.31;4481209;31;32058;-63
2022/04/09 03:18:15;;;;;;;;;;;;;;;12.85;76.29;97863.91;4487747;31;34314;-64
2022/04/09 03:20:44;;;;;;;;;;;;;;;13.17;74.05;97879.00;4483597;31;33145;-65
2022/04/09 03:23:14;;;;;;;;;;;;;;;13.49;72.88;97888.75;4481038;31;34188;-66
2022/04/09 03:25:44;;;;;;;;;;;;;;;13.38;73.07;97886.44;4483141;31;34862;-63
2022/04/09 03:28:15;;;;;;;;;;;;;;;13.99;70.21;97873.87;4486279;31;34887;-64
2022/04/09 03:30:48;;;;;;;;;;;;;;;13.49;71.60;97880.69;4490505;31;33055;-64
2022/04/09 03:33:19;;;;;;;;;;;;;;;13.30;71.98;97877.62;4492032;31;32535;-66
2022/04/09 03:35:48;;;;;;;;;;;;;;;13.15;72.75;97872.97;4485923;31;32988;-64
2022/04/09 03:38:16;;;;;;;;;;;;;;;13.85;69.81;97855.88;4490571;31;33360;-63
2022/04/09 03:40:46;;;;;;;;;;;;;;;14.57;66.92;97854.50;4485029;31;34163;-64
2022/04/09 03:43:15;;;;;;;;;;;;;;;14.82;65.30;97855.03;4482633;31;37557;-63
2022/04/09 03:45:44;;;;;;;;;;;;;;;15.23;64.01;97870.66;4483847;31;33172;-63
2022/04/09 03:48:13;;;;;;;;;;;;;;;15.30;62.63;97876.97;4486485;31;33835;-65
2022/04/09 03:50:42;;;;;;;;;;;;;;;15.21;62.81;97864.63;4480625;31;33004;-67
2022/04/09 03:53:11;;;;;;;;;;;;;;;14.93;63.15;97861.78;4484930;31;33538;-65
2022/04/09 03:55:40;;;;;;;;;;;;;;;15.00;63.34;97860.88;4484593;31;33162;-65
2022/04/09 03:58:10;;;;;;;;;;;;;;;15.45;61.78;97858.87;4488749;31;34230;-66
2022/04/09 04:00:39;;;;;;;;;;;;;;;15.57;60.64;97864.63;4480059;31;33003;-65
2022/04/09 04:03:09;;;;;;;;;;;;;;;15.32;61.56;97851.50;4484692;31;34112;-65
2022/04/09 04:05:41;;;;;;;;;;;;;;;15.77;59.82;97856.75;4488937;31;31968;-66
2022/04/09 04:08:10;;;;;;;;;;;;;;;15.88;59.61;97855.38;4485481;31;32975;-66
2022/04/09 04:10:40;;;;;;;;;;;;;;;16.07;58.50;97844.72;4489860;31;33392;-66
2022/04/09 04:13:11;;;;;;;;;;;;;;;15.70;59.24;97837.81;4481756;31;34295;-64
2022/04/09 04:15:42;;;;;;;;;;;;;;;15.90;58.16;97832.56;4484659;31;33365;-66
2022/04/09 04:18:13;;;;;;;;;;;;;;;16.07;58.24;97831.25;4482446;31;33022;-66
2022/04/09 04:20:43;;;;;;;;;;;;;;;16.17;57.66;97836.28;4482197;31;33553;-67
2022/04/09 04:23:13;;;;;;;;;;;;;;;16.23;57.03;97826.59;4491254;31;34222;-67
2022/04/09 04:25:42;;;;;;;;;;;;;;;16.28;57.63;97824.13;4480474;31;34084;-65
2022/04/09 04:28:11;;;;;;;;;;;;;;;16.15;57.96;97819.47;4483145;31;35107;-66
2022/04/09 04:30:42;;;;;;;;;;;;;;;16.13;58.15;97813.44;4487032;31;33069;-65
2022/04/09 04:33:11;;;;;;;;;;;;;;;14.94;61.24;97807.75;4486648;31;34367;-65
2022/04/09 04:35:42;;;;;;;;;;;;;;;16.03;58.42;97805.69;4487801;31;32502;-67
2022/04/09 04:38:12;;;;;;;;;;;;;;;16.10;58.31;97816.53;4490313;31;34002;-65
2022/04/09 04:40:42;;;;;;;;;;;;;;;16.00;58.32;97811.47;4485892;31;33970;-66
2022/04/09 04:43:11;;;;;;;;;;;;;;;15.78;59.35;97801.75;4483101;31;33250;-65
2022/04/09 04:45:40;;;;;;;;;;;;;;;15.33;60.98;97793.03;4483826;31;31010;-68
2022/04/09 04:48:10;;;;;;;;;;;;;;;15.17;61.17;97790.59;4482929;31;34109;-65
2022/04/09 04:50:41;;;;;;;;;;;;;;;15.20;61.15;97785.63;4482398;31;34335;-63
2022/04/09 04:53:11;;;;;;;;;;;;;;;13.54;66.34;97772.62;4479375;31;34510;-68
2022/04/09 04:55:40;;;;;;;;;;;;;;;14.18;65.43;97767.59;4480795;31;34406;-65
2022/04/09 04:58:10;;;;;;;;;;;;;;;13.71;66.64;97754.50;4488664;31;34970;-64
2022/04/09 05:00:40;;;;;;;;;;;;;;;13.15;68.83;97737.81;4488612;31;33372;-65
2022/04/09 05:03:15;;;;;;;;;;;;;;;12.12;74.13;97720.97;4484280;31;34690;-67
2022/04/09 05:05:47;;;;;;;;;;;;;;;11.77;76.05;97729.44;4486076;31;32456;-65
2022/04/09 05:08:18;;;;;;;;;;;;;;;12.54;73.38;97735.03;4481543;31;33892;-64
2022/04/09 05:10:47;;;;;;;;;;;;;;;12.46;73.32;97735.09;4486236;31;34637;-64
2022/04/09 05:13:15;;;;;;;;;;;;;;;11.83;75.17;97720.72;4485193;31;33918;-64
2022/04/09 05:15:43;;;;;;;;;;;;;;;11.53;77.17;97724.97;4485892;31;32159;-65
2022/04/09 05:18:12;;;;;;;;;;;;;;;11.09;80.84;97730.69;4488398;31;34802;-66
2022/04/09 05:20:40;;;;;;;;;;;;;;;11.46;78.01;97721.28;4489323;31;34181;-65
2022/04/09 05:23:09;;;;;;;;;;;;;;;11.30;78.71;97719.44;4488378;31;34592;-65
2022/04/09 05:25:38;;;;;;;;;;;;;;;10.76;82.51;97716.44;4479550;31;34288;-64
2022/04/09 05:28:09;;;;;;;;;;;;;;;10.24;85.92;97715.63;4485193;31;34095;-64
2022/04/09 05:30:44;;;;;;;;;;;;;;;10.38;86.35;97730.25;4480484;31;33190;-67
2022/04/09 05:33:12;;;;;;;;;;;;;;;10.40;86.14;97744.28;4482786;31;34376;-66
2022/04/09 05:35:41;;;;;;;;;;;;;;;10.41;86.47;97751.31;4485454;31;34325;-67
2022/04/09 05:38:10;;;;;;;;;;;;;;;10.40;87.44;97736.28;4492677;31;35128;-67
2022/04/09 05:40:39;;;;;;;;;;;;;;;10.51;85.70;97729.78;4485432;31;33503;-66
2022/04/09 05:43:08;;;;;;;;;;;;;;;10.54;85.62;97742.81;4481143;31;35063;-65
2022/04/09 05:45:37;;;;;;;;;;;;;;;10.74;84.34;97756.75;4485622;31;34335;-65
2022/04/09 05:48:05;;;;;;;;;;;;;;;11.03;83.06;97750.94;4485489;31;35151;-67
2022/04/09 05:50:35;;;;;;;;;;;;;;;10.57;86.04;97763.06;4489686;31;33981;-66
2022/04/09 05:53:04;;;;;;;;;;;;;;;10.12;87.92;97765.03;4480300;31;34199;-66
2022/04/09 05:55:33;;;;;;;;;;;;;;;10.42;87.31;97771.69;4483310;31;32591;-66
2022/04/09 05:58:01;;;;;;;;;;;;;;;10.26;86.88;97771.62;4486251;31;33120;-67
2022/04/09 06:00:31;;;;;;;;;;;;;;;10.48;85.84;97780.91;4484213;31;34063;-67
2022/04/09 06:03:03;;;;;;;;;;;;;;;10.84;84.75;97765.44;4484705;31;32906;-65
2022/04/09 06:05:35;;;;;;;;;;;;;;;10.66;84.84;97772.78;4487352;31;33837;-67
2022/04/09 06:08:04;;;;;;;;;;;;;;;10.68;84.67;97768.09;4490640;31;33097;-67
2022/04/09 06:10:40;;;;;;;;;;;;;;;10.79;82.20;97775.00;4488369;31;34476;-64
2022/04/09 06:13:10;;;;;;;;;;;;;;;10.16;87.33;97774.41;4480573;31;34423;-65
2022/04/09 06:15:38;;;;;;;;;;;;;;;11.06;82.83;97782.72;4480465;31;31523;-65
2022/04/09 06:18:07;;;;;;;;;;;;;;;11.33;80.76;97805.69;4473375;32;33970;-67
2022/04/09 06:20:35;;;;;;;;;;;;;;;10.82;83.24;97791.56;4483103;31;34116;-65
2022/04/09 06:23:04;;;;;;;;;;;;;;;10.39;86.59;97772.00;4484545;31;33710;-65
2022/04/09 06:25:33;;;;;;;;;;;;;;;10.16;86.73;97778.91;4480062;31;33550;-65
2022/04/09 06:28:01;;;;;;;;;;;;;;;10.05;88.12;97780.03;4490038;31;34028;-67
2022/04/09 06:30:30;;;;;;;;;;;;;;;10.72;85.14;97775.66;4485143;31;33670;-65
2022/04/09 06:33:02;;;;;;;;;;;;;;;10.70;83.91;97766.09;4470074;31;33806;-65
2022/04/09 06:35:30;;;;;;;;;;;;;;;10.87;82.89;97783.03;4486921;31;33029;-65
2022/04/09 06:38:03;;;;;;;;;;;;;;;10.90;82.79;97772.00;4487043;31;34133;-67
2022/04/09 06:40:38;;;;;;;;;;;;;;;10.81;83.14;97778.31;4485608;31;33372;-66
2022/04/09 06:43:08;;;;;;;;;;;;;;;11.25;80.24;97772.69;4483590;31;34087;-68
2022/04/09 06:45:39;;;;;;;;;;;;;;;10.98;82.81;97787.22;4483026;31;32529;-67
2022/04/09 06:48:12;;;;;;;;;;;;;;;11.58;78.82;97795.78;4485229;31;33177;-65
2022/04/09 06:50:43;;;;;;;;;;;;;;;12.74;73.67;97795.31;4483854;31;34078;-67
2022/04/09 06:53:11;;;;;;;;;;;;;;;12.77;73.33;97794.12;4482427;31;34118;-66
2022/04/09 06:55:41;;;;;;;;;;;;;;;12.41;74.59;97788.44;4488055;31;33543;-66
2022/04/09 06:58:11;;;;;;;;;;;;;;;11.82;76.89;97780.69;4483169;31;33932;-67
2022/04/09 07:00:39;;;;;;;;;;;;;;;11.95;77.74;97783.72;4489102;31;32672;-66
2022/04/09 07:03:08;;;;;;;;;;;;;;;11.73;78.32;97805.84;4482607;31;34142;-66
2022/04/09 07:05:37;;;;;;;;;;;;;;;12.18;76.41;97804.44;4484427;31;34358;-67
2022/04/09 07:08:08;;;;;;;;;;;;;;;11.45;80.54;97797.31;4486567;31;34040;-66
2022/04/09 07:10:39;;;;;;;;;;;;;;;11.65;79.48;97791.44;4488744;31;35167;-67
2022/04/09 07:13:07;;;;;;;;;;;;;;;11.46;81.88;97798.97;4484783;31;32927;-66
2022/04/09 07:15:38;;;;;;;;;;;;;;;11.52;81.15;97809.84;4493087;31;33257;-68
2022/04/09 07:18:06;;;;;;;;;;;;;;;12.40;76.57;97985.31;4486139;31;34955;-66
2022/04/09 07:20:36;;;;;;;;;;;;;;;12.05;77.84;97995.34;4485412;31;34265;-66
2022/04/09 07:23:05;;;;;;;;;;;;;;;12.30;73.42;97994.34;4484479;31;34167;-66
2022/04/09 07:25:35;;;;;;;;;;;;;;;11.99;71.48;97998.69;4486924;31;32100;-67
2022/04/09 07:28:03;;;;;;;;;;;;;;;12.15;71.82;98020.16;4484184;31;32571;-67
2022/04/09 07:30:32;;;;;;;;;;;;;;;11.89;69.77;98006.91;4483510;31;33380;-66
2022/04/09 07:33:00;;;;;;;;;;;;;;;12.22;67.33;97988.97;4482039;32;34252;-66
2022/04/09 07:35:29;;;;;;;;;;;;;;;11.96;68.48;97991.00;4488618;31;33900;-66
2022/04/09 07:38:00;;;;;;;;;;;;;;;12.29;67.20;97986.47;4487373;31;34110;-68
2022/04/09 07:40:28;;;;;;;;;;;;;;;11.96;68.67;97993.66;4481818;31;34372;-67
2022/04/09 07:42:58;;;;;;;;;;;;;;;12.40;68.22;97993.34;4483294;31;34327;-64
2022/04/09 07:45:27;;;;;;;;;;;;;;;12.73;67.00;97984.22;4480171;31;33206;-66
2022/04/09 07:47:57;;;;;;;;;;;;;;;12.32;68.88;97972.72;4490152;31;33002;-65
2022/04/09 07:50:27;;;;;;;;;;;;;;;12.96;66.64;97978.97;4481279;31;34588;-66
2022/04/09 07:52:56;;;;;;;;;;;;;;;13.00;65.60;97976.75;4480652;31;34255;-65
2022/04/09 07:55:25;;;;;;;;;;;;;;;12.55;67.35;97973.72;4482680;31;33247;-63
2022/04/09 07:57:58;;;;;;;;;;;;;;;12.73;67.29;97968.13;4490882;31;33085;-64
2022/04/09 08:00:33;;;;;;;;;;;;;;;12.61;68.95;97965.97;4484348;31;32978;-66
2022/04/09 08:03:03;;;;;;;;;;;;;;;12.95;67.02;97960.34;4492875;31;32949;-67
2022/04/09 08:05:32;;;;;;;;;;;;;;;13.24;65.90;97962.41;4487244;31;32134;-64
2022/04/09 08:08:01;;;;;;;;;;;;;;;13.03;66.61;97966.53;4478562;31;32894;-65
2022/04/09 08:10:30;;;;;;;;;;;;;;;13.33;66.38;97961.41;4480276;32;33979;-64
2022/04/09 08:13:01;;;;;;;;;;;;;;;13.42;66.17;97957.66;4485905;31;34299;-68
2022/04/09 08:15:31;;;;;;;;;;;;;;;13.42;66.33;97965.72;4487218;31;32122;-65
2022/04/09 08:17:59;;;;;;;;;;;;;;;12.96;68.34;97964.69;4488252;31;34482;-64
2022/04/09 08:20:48;;;;;;;;;;;;;;;12.81;69.52;97970.78;4474784;31;32939;-65
2022/04/09 08:23:16;;;;;;;;;;;;;;;12.83;69.67;97976.81;4496608;31;34851;-64
2022/04/09 08:25:44;;;;;;;;;;;;;;;12.70;69.87;97981.06;4485385;31;33032;-65
2022/04/09 08:28:13;;;;;;;;;;;;;;;13.23;68.33;97987.63;4487774;31;34035;-64
2022/04/09 08:30:41;;;;;;;;;;;;;;;13.07;68.04;97983.13;4486969;31;33167;-65
2022/04/09 08:33:13;;;;;;;;;;;;;;;12.80;69.67;97987.91;4483335;31;34261;-65
2022/04/09 08:35:43;;;;;;;;;;;;;;;12.76;69.73;97983.06;4478935;31;33182;-65
2022/04/09 08:38:12;;;;;;;;;;;;;;;12.70;69.93;97971.16;4481755;31;33542;-64
2022/04/09 08:40:40;;;;;;;;;;;;;;;13.08;68.04;97974.06;4480365;31;33041;-65
2022/04/09 08:43:08;;;;;;;;;;;;;;;13.49;66.12;97979.28;4481779;31;35405;-64
2022/04/09 08:45:36;;;;;;;;;;;;;;;13.31;66.50;97978.69;4466169;31;34580;-66
2022/04/09 08:48:06;;;;;;;;;;;;;;;13.49;66.02;97985.50;4484873;31;34101;-64
2022/04/09 08:50:36;;;;;;;;;;;;;;;13.26;67.79;97984.59;4483649;31;34495;-65
2022/04/09 08:53:08;;;;;;;;;;;;;;;13.73;65.65;97995.25;4482479;31;32930;-66
2022/04/09 08:55:36;;;;;;;;;;;;;;;13.52;66.75;98000.44;4486910;31;33369;-65
2022/04/09 08:58:05;;;;;;;;;;;;;;;13.65;66.58;98006.06;4481360;31;33273;-64
2022/04/09 09:00:33;;;;;;;;;;;;;;;13.57;66.81;98007.97;4470291;31;35908;-65
2022/04/09 09:03:01;;;;;;;;;;;;;;;13.90;64.55;98017.53;4473828;31;32513;-65
2022/04/09 09:05:37;;;;;;;;;;;;;;;13.62;66.41;98025.25;4488569;31;32581;-66
2022/04/09 09:08:07;;;;;;;;;;;;;;;13.91;65.48;98029.13;4479669;31;33121;-65
2022/04/09 09:10:36;;;;;;;;;;;;;;;13.81;65.66;98036.59;4455975;32;33209;-67
2022/04/09 09:13:07;;;;;;;;;;;;;;;12.87;68.43;98046.28;4476948;31;35904;-64
2022/04/09 09:15:45;;;;;;;;;;;;;;;13.14;69.29;98037.00;4479495;31;32411;-65
2022/04/09 09:18:28;;;;;;;;;;;;;;;13.09;67.60;98034.81;4489072;31;32776;-66
2022/04/09 09:20:56;;;;;;;;;;;;;;;12.68;66.80;98037.59;4472160;31;33716;-64
2022/04/09 09:23:25;;;;;;;;;;;;;;;12.20;65.88;98033.06;4493591;31;33793;-65
2022/04/09 09:25:55;;;;;;;;;;;;;;;12.25;65.71;98028.03;4482591;31;32246;-64
2022/04/09 09:28:27;;;;;;;;;;;;;;;12.09;66.55;98051.16;4481973;31;34880;-64
2022/04/09 09:30:56;;;;;;;;;;;;;;;12.58;65.10;98058.37;4483301;31;34031;-63
2022/04/09 09:33:25;;;;;;;;;;;;;;;12.30;65.31;98072.16;4486103;31;34020;-64
2022/04/09 09:36:12;;;;;;;;;;;;;;;12.63;65.01;98082.06;4467407;31;34707;-66
2022/04/09 09:38:40;;;;;;;;;;;;;;;12.43;66.20;98109.22;4464831;32;33926;-66
2022/04/09 09:41:20;;;;;;;;;;;;;;;12.88;65.00;98123.16;4480790;31;33875;-64
2022/04/09 09:43:59;;;;;;;;;;;;;;;12.48;65.43;98141.75;4481838;31;32778;-65
2022/04/09 09:46:27;;;;;;;;;;;;;;;12.54;64.67;98157.19;4452444;31;32891;-65
2022/04/09 09:48:55;;;;;;;;;;;;;;;11.86;64.50;98179.63;4489062;31;34024;-65
2022/04/09 09:51:23;;;;;;;;;;;;;;;11.16;65.11;98170.81;4473435;31;33984;-63
2022/04/09 09:54:02;;;;;;;;;;;;;;;10.51;65.11;98173.81;4492306;31;35175;-65
2022/04/09 09:56:37;;;;;;;;;;;;;;;10.71;64.49;98207.44;4469992;31;33199;-63
2022/04/09 09:59:14;;;;;;;;;;;;;;;10.49;65.02;98205.22;4480046;31;32594;-65
2022/04/09 10:01:42;;;;;;;;;;;;;;;10.70;64.59;98215.63;4486633;31;34135;-66
2022/04/09 10:04:13;;;;;;;;;;;;;;;10.66;64.60;98217.78;4486646;31;34117;-65
2022/04/09 10:06:42;;;;;;;;;;;;;;;10.33;66.44;98229.94;4485259;31;31894;-66
2022/04/09 10:09:11;;;;;;;;;;;;;;;10.30;65.54;98235.59;4470594;31;33942;-64
2022/04/09 10:11:42;;;;;;;;;;;;;;;10.07;66.14;98235.13;4489535;31;33322;-66
2022/04/09 10:14:10;;;;;;;;;;;;;;;10.64;64.52;98237.62;4486403;31;33790;-63
2022/04/09 10:16:37;;;;;;;;;;;;;;;10.57;64.79;98241.91;4468377;31;31968;-63
2022/04/09 10:19:05;;;;;;;;;;;;;;;10.42;65.26;98239.75;4482334;31;34319;-65
2022/04/09 10:21:33;;;;;;;;;;;;;;;10.14;65.61;98244.22;4480939;31;35529;-63
2022/04/09 10:24:01;;;;;;;;;;;;;;;9.88;66.42;98244.06;4484577;31;33187;-62
2022/04/09 10:26:28;;;;;;;;;;;;;;;10.00;65.97;98229.53;4475114;31;33153;-62
2022/04/09 10:29:03;;;;;;;;;;;;;;;9.76;65.86;98234.56;4467539;31;32629;-62
2022/04/09 10:31:31;;;;;;;;;;;;;;;9.91;66.91;98246.44;4486656;31;32547;-63
2022/04/09 10:33:59;;;;;;;;;;;;;;;9.46;67.21;98249.00;4482553;31;33569;-64
2022/04/09 10:36:44;;;;;;;;;;;;;;;9.53;67.73;98248.28;4475731;31;33255;-64
2022/04/09 10:39:39;;;;;;;;;;;;;;;9.83;64.77;98251.69;4477092;31;33578;-63
2022/04/09 10:42:06;;;;;;;;;;;;;;;9.83;64.86;98243.69;4489808;31;34459;-64
2022/04/09 10:44:34;;;;;;;;;;;;;;;9.74;64.41;98260.59;4480611;31;35504;-65
2022/04/09 10:47:03;;;;;;;;;;;;;;;10.04;64.89;98286.22;4496354;31;32024;-64
2022/04/09 10:49:31;;;;;;;;;;;;;;;10.10;63.05;98284.78;4491333;31;34995;-66
2022/04/09 10:52:11;;;;;;;;;;;;;;;9.80;61.47;98289.41;4489982;31;32835;-65
2022/04/09 10:54:39;;;;;;;;;;;;;;;9.44;62.40;98297.22;4490077;31;34769;-64
2022/04/09 10:57:07;;;;;;;;;;;;;;;9.04;63.73;98298.19;4491128;31;33488;-67
2022/04/09 10:59:36;;;;;;;;;;;;;;;8.95;64.56;98309.72;4491485;31;33174;-64
2022/04/09 11:02:04;;;;;;;;;;;;;;;9.08;63.72;98285.41;4476738;31;33017;-63
2022/04/09 11:04:32;;;;;;;;;;;;;;;9.41;62.97;98296.66;4468676;31;34039;-64
2022/04/09 11:07:00;;;;;;;;;;;;;;;9.03;63.82;98295.69;4481729;31;33134;-64
2022/04/09 11:09:42;;;;;;;;;;;;;;;9.22;61.85;98306.38;4487228;31;34639;-66
2022/04/09 11:12:10;;;;;;;;;;;;;;;8.93;62.70;98311.69;4491498;31;32965;-64
2022/04/09 11:14:42;;;;;;;;;;;;;;;8.84;62.57;98329.38;4485039;31;33033;-63
2022/04/09 11:17:21;;;;;;;;;;;;;;;8.92;62.24;98355.34;4482955;31;33653;-64
2022/04/09 11:19:48;;;;;;;;;;;;;;;9.02;62.28;98358.03;4488931;31;33914;-63
2022/04/09 11:22:17;;;;;;;;;;;;;;;9.33;61.25;98358.75;4480462;31;34231;-64
2022/04/09 11:24:45;;;;;;;;;;;;;;;9.04;61.29;98366.75;4485028;31;32673;-63
2022/04/09 11:27:14;;;;;;;;;;;;;;;9.38;61.00;98383.22;4489698;31;30630;-66
2022/04/09 11:29:42;;;;;;;;;;;;;;;9.22;61.96;98377.59;4490730;31;32886;-64
2022/04/09 11:32:17;;;;;;;;;;;;;;;9.57;60.36;98398.41;4489066;31;34745;-63
2022/04/09 11:34:46;;;;;;;;;;;;;;;9.59;60.34;98415.13;4495066;31;32802;-63
2022/04/09 11:37:15;;;;;;;;;;;;;;;9.31;60.56;98414.16;4490254;31;34174;-65
2022/04/09 11:39:43;;;;;;;;;;;;;;;9.28;60.00;98398.41;4484757;31;34220;-67
2022/04/09 11:42:12;;;;;;;;;;;;;;;9.05;60.48;98393.31;4467839;31;33677;-66
2022/04/09 11:44:40;;;;;;;;;;;;;;;9.30;58.78;98401.75;4482257;31;32855;-64
2022/04/09 11:47:12;;;;;;;;;;;;;;;9.58;59.16;98397.41;4483523;31;31996;-70
2022/04/09 11:49:44;;;;;;;;;;;;;;;9.77;57.12;98377.87;4486674;31;34089;-63
2022/04/09 11:52:26;;;;;;;;;;;;;;;9.33;58.11;98425.53;4483232;31;32449;-63
2022/04/09 11:54:55;;;;;;;;;;;;;;;9.42;58.33;98442.53;4483015;31;34055;-65
2022/04/09 11:57:25;;;;;;;;;;;;;;;9.80;57.73;98452.41;4470995;31;33365;-67
2022/04/09 11:59:55;;;;;;;;;;;;;;;9.46;57.78;98443.94;4468539;31;32899;-65
2022/04/09 12:02:43;;;;;;;;;;;;;;;9.36;57.43;98449.28;4477003;31;34432;-65
2022/04/09 12:05:13;;;;;;;;;;;;;;;9.44;56.03;98451.28;4480262;31;33182;-63
2022/04/09 12:07:49;;;;;;;;;;;;;;;9.44;56.74;98462.78;4471204;31;34583;-65
2022/04/09 12:10:23;;;;;;;;;;;;;;;9.49;56.10;98449.84;4474748;31;32848;-65
2022/04/09 12:12:57;;;;;;;;;;;;;;;9.49;55.78;98460.53;4488416;31;35193;-67
2022/04/09 12:15:34;;;;;;;;;;;;;;;9.73;55.11;98480.69;4479297;31;32791;-68
2022/04/09 12:18:24;;;;;;;;;;;;;;;9.74;54.40;98482.34;4497244;31;34418;-66
2022/04/09 12:20:56;;;;;;;;;;;;;;;9.26;54.80;98491.13;4474524;31;32778;-66
2022/04/09 12:23:29;;;;;;;;;;;;;;;9.24;55.63;98487.75;4476410;31;34783;-68
2022/04/09 12:25:59;;;;;;;;;;;;;;;9.51;53.92;98500.47;4487148;31;33073;-67
2022/04/09 12:28:31;;;;;;;;;;;;;;;9.48;54.78;98490.91;4476660;31;33233;-64
2022/04/09 12:31:00;;;;;;;;;;;;;;;9.01;55.38;98481.78;4488496;31;33654;-64
2022/04/09 12:33:28;;;;;;;;;;;;;;;9.17;55.59;98498.13;4472165;31;33460;-65
2022/04/09 12:36:06;;;;;;;;;;;;;;;9.06;55.42;98491.09;4466738;32;35250;-65
2022/04/09 12:38:41;;;;;;;;;;;;;;;9.78;53.77;98484.59;4480731;31;33383;-64
2022/04/09 12:41:16;;;;;;;;;;;;;;;9.07;54.66;98492.78;4489975;31;33108;-64
2022/04/09 12:43:52;;;;;;;;;;;;;;;9.40;53.91;98473.88;4481387;31;34012;-65
2022/04/09 12:46:26;;;;;;;;;;;;;;;9.14;54.83;98470.88;4493979;31;33175;-69
2022/04/09 12:48:59;;;;;;;;;;;;;;;9.36;53.21;98462.63;4490522;31;33530;-65
2022/04/09 12:51:31;;;;;;;;;;;;;;;9.59;54.67;98465.03;4495955;31;34171;-65
2022/04/09 12:54:01;;;;;;;;;;;;;;;9.54;53.54;98455.63;4475727;31;33824;-66
2022/04/09 12:56:36;;;;;;;;;;;;;;;9.55;54.06;98472.50;4483656;31;33198;-65
2022/04/09 12:59:08;;;;;;;;;;;;;;;9.94;52.90;98469.81;4482437;31;32658;-65
2022/04/09 13:01:39;;;;;;;;;;;;;;;9.52;54.29;98492.31;4482609;31;32998;-66
2022/04/09 13:04:10;;;;;;;;;;;;;;;9.70;54.01;98476.44;4453845;31;32639;-65